createdAt,value
2022-10-24T00:00:51.098Z,2.60
2022-10-24T00:03:17.615Z,2.90
2022-10-24T00:05:44.503Z,2.40
2022-10-24T00:08:11.571Z,2.53
2022-10-24T00:10:40.859Z,2.50
2022-10-24T00:13:08.103Z,3.13
2022-10-24T00:15:34.442Z,2.73
2022-10-24T00:18:00.790Z,2.93
2022-10-24T00:20:27.201Z,2.70
2022-10-24T00:22:53.586Z,2.93
2022-10-24T00:25:20.024Z,2.93
2022-10-24T00:27:46.348Z,2.80
2022-10-24T00:30:12.881Z,2.97
2022-10-24T00:32:39.249Z,3.20
2022-10-24T00:35:05.815Z,2.70
2022-10-24T00:37:32.194Z,2.90
2022-10-24T00:39:58.545Z,2.60
2022-10-24T00:42:24.962Z,2.70
2022-10-24T00:44:53.049Z,2.70
2022-10-24T00:47:20.234Z,3.20
2022-10-24T00:49:49.914Z,2.53
2022-10-24T00:52:18.023Z,3.30
2022-10-24T00:54:45.814Z,3.17
2022-10-24T00:57:35.545Z,2.90
2022-10-24T01:00:08.541Z,2.93
2022-10-24T01:02:34.978Z,3.17
2022-10-24T01:05:02.306Z,2.83
2022-10-24T01:07:31.639Z,2.43
2022-10-24T01:10:03.258Z,2.60
2022-10-24T01:12:40.423Z,2.77
2022-10-24T01:15:12.745Z,2.53
2022-10-24T01:17:45.278Z,2.83
2022-10-24T01:20:31.925Z,2.97
2022-10-24T01:23:17.183Z,2.70
2022-10-24T01:25:43.510Z,2.77
2022-10-24T01:28:12.940Z,2.60
2022-10-24T01:30:43.178Z,2.53
2022-10-24T01:33:15.882Z,3.40
2022-10-24T01:35:42.665Z,2.83
2022-10-24T01:38:12.714Z,2.60
2022-10-24T01:40:54.663Z,2.90
2022-10-24T01:43:23.843Z,2.23
2022-10-24T01:45:53.537Z,2.50
2022-10-24T01:48:21.189Z,2.70
2022-10-24T01:50:49.361Z,2.80
2022-10-24T01:53:16.841Z,2.60
2022-10-24T01:55:44.640Z,3.20
2022-10-24T01:58:10.999Z,2.47
2022-10-24T02:00:37.431Z,2.80
2022-10-24T02:03:08.342Z,2.70
2022-10-24T02:05:37.455Z,2.60
2022-10-24T02:08:06.736Z,2.73
2022-10-24T02:10:35.687Z,2.83
2022-10-24T02:13:03.770Z,2.80
2022-10-24T02:15:33.366Z,2.97
2022-10-24T02:17:59.908Z,2.87
2022-10-24T02:20:33.418Z,3.27
2022-10-24T02:23:10.020Z,3.20
2022-10-24T02:25:43.288Z,2.50
2022-10-24T02:28:09.666Z,2.80
2022-10-24T02:30:39.293Z,3.20
2022-10-24T02:33:05.679Z,2.47
2022-10-24T02:35:34.281Z,2.70
2022-10-24T02:38:04.081Z,3.40
2022-10-24T02:40:30.795Z,3.30
2022-10-24T02:42:58.464Z,3.00
2022-10-24T02:45:25.643Z,2.87
2022-10-24T02:47:54.338Z,2.90
2022-10-24T02:50:21.123Z,2.73
2022-10-24T02:52:47.919Z,2.60
2022-10-24T02:55:14.486Z,3.00
2022-10-24T02:57:40.838Z,3.10
2022-10-24T03:00:07.932Z,2.67
2022-10-24T03:02:34.320Z,3.00
2022-10-24T03:05:00.715Z,3.00
2022-10-24T03:07:27.143Z,3.13
2022-10-24T03:09:53.539Z,3.10
2022-10-24T03:12:20.090Z,3.27
2022-10-24T03:14:46.438Z,3.47
2022-10-24T03:17:12.856Z,3.33
2022-10-24T03:19:39.192Z,3.90
2022-10-24T03:22:05.610Z,3.60
2022-10-24T03:24:43.797Z,3.27
2022-10-24T03:27:18.306Z,3.60
2022-10-24T03:29:44.643Z,3.17
2022-10-24T03:32:11.006Z,3.27
2022-10-24T03:34:37.626Z,5.33
2022-10-24T03:37:04.017Z,11.30
2022-10-24T03:39:30.385Z,5.83
2022-10-24T03:41:56.747Z,3.30
2022-10-24T03:44:23.110Z,2.80
2022-10-24T03:46:49.454Z,3.13
2022-10-24T03:49:15.845Z,3.27
2022-10-24T03:51:42.520Z,3.23
2022-10-24T03:54:09.568Z,3.20
2022-10-24T03:56:35.959Z,3.20
2022-10-24T03:59:02.383Z,3.10
2022-10-24T04:01:28.835Z,8.77
2022-10-24T04:03:55.478Z,10.33
2022-10-24T04:06:21.827Z,7.20
2022-10-24T04:08:48.174Z,3.93
2022-10-24T04:11:14.515Z,3.47
2022-10-24T04:13:41.166Z,3.60
2022-10-24T04:16:07.930Z,3.73
2022-10-24T04:18:34.672Z,3.63
2022-10-24T04:21:01.033Z,3.10
2022-10-24T04:23:27.415Z,3.10
2022-10-24T04:25:54.070Z,3.00
2022-10-24T04:28:20.422Z,3.50
2022-10-24T04:30:46.799Z,3.53
2022-10-24T04:33:13.171Z,3.23
2022-10-24T04:35:39.570Z,3.63
2022-10-24T04:38:06.577Z,4.07
2022-10-24T04:40:32.898Z,4.27
2022-10-24T04:42:59.228Z,3.60
2022-10-24T04:45:25.790Z,3.13
2022-10-24T04:47:52.168Z,4.07
2022-10-24T04:50:18.610Z,3.40
2022-10-24T04:52:44.994Z,4.10
2022-10-24T04:55:11.370Z,4.43
2022-10-24T04:57:37.706Z,3.93
2022-10-24T05:00:05.311Z,3.40
2022-10-24T05:02:31.734Z,3.97
2022-10-24T05:04:58.149Z,3.53
2022-10-24T05:07:24.489Z,3.60
2022-10-24T05:09:50.843Z,3.90
2022-10-24T05:12:20.749Z,4.83
2022-10-24T05:14:47.647Z,4.03
2022-10-24T05:17:14.534Z,4.20
2022-10-24T05:19:40.978Z,4.03
2022-10-24T05:22:10.082Z,4.10
2022-10-24T05:24:37.359Z,4.10
2022-10-24T05:27:03.710Z,4.03
2022-10-24T05:29:30.051Z,4.90
2022-10-24T05:31:56.395Z,3.90
2022-10-24T05:34:22.741Z,4.10
2022-10-24T05:36:49.067Z,4.00
2022-10-24T05:39:15.420Z,4.20
2022-10-24T05:41:44.756Z,3.57
2022-10-24T05:44:13.511Z,4.07
2022-10-24T05:46:39.881Z,4.23
2022-10-24T05:49:06.327Z,4.03
2022-10-24T05:51:32.708Z,4.07
2022-10-24T05:53:59.104Z,4.23
2022-10-24T05:56:25.614Z,4.30
2022-10-24T05:58:51.935Z,3.80
2022-10-24T06:01:18.374Z,4.50
2022-10-24T06:03:44.845Z,3.87
2022-10-24T06:06:11.200Z,4.43
2022-10-24T06:08:38.054Z,3.90
2022-10-24T06:11:04.640Z,3.77
2022-10-24T06:13:35.248Z,3.83
2022-10-24T06:16:02.709Z,3.30
2022-10-24T06:18:29.119Z,3.90
2022-10-24T06:20:56.240Z,3.43
2022-10-24T06:23:23.576Z,3.90
2022-10-24T06:25:49.946Z,3.43
2022-10-24T06:28:16.276Z,4.40
2022-10-24T06:30:42.715Z,4.10
2022-10-24T06:33:09.071Z,3.67
2022-10-24T06:35:35.415Z,3.73
2022-10-24T06:38:01.783Z,3.30
2022-10-24T06:40:28.114Z,3.70
2022-10-24T06:42:54.465Z,3.50
2022-10-24T06:45:21.851Z,3.20
2022-10-24T06:47:51.917Z,3.67
2022-10-24T06:50:20.518Z,3.57
2022-10-24T06:52:46.885Z,3.60
2022-10-24T06:55:13.229Z,3.33
2022-10-24T06:57:39.610Z,3.30
2022-10-24T07:00:06.850Z,3.73
2022-10-24T07:02:33.248Z,3.53
2022-10-24T07:04:59.615Z,3.37
2022-10-24T07:07:26.012Z,3.80
2022-10-24T07:09:57.209Z,3.73
2022-10-24T07:12:23.868Z,3.90
2022-10-24T07:14:50.697Z,3.07
2022-10-24T07:17:17.371Z,3.37
2022-10-24T07:19:43.782Z,3.70
2022-10-24T07:22:10.172Z,2.83
2022-10-24T07:24:36.563Z,3.03
2022-10-24T07:27:03.181Z,3.30
2022-10-24T07:29:29.591Z,3.60
2022-10-24T07:31:57.087Z,3.13
2022-10-24T07:34:23.436Z,3.10
2022-10-24T07:36:49.749Z,3.43
2022-10-24T07:39:16.111Z,3.37
2022-10-24T07:41:42.681Z,3.40
2022-10-24T07:44:09.228Z,2.67
2022-10-24T07:46:35.564Z,2.83
2022-10-24T07:49:01.901Z,2.60
2022-10-24T07:51:29.834Z,3.83
2022-10-24T07:53:57.264Z,3.70
2022-10-24T07:56:23.632Z,3.10
2022-10-24T07:58:49.997Z,2.63
2022-10-24T08:01:21.790Z,3.60
2022-10-24T08:03:48.575Z,3.03
2022-10-24T08:06:16.834Z,3.00
2022-10-24T08:08:43.495Z,3.10
2022-10-24T08:11:10.590Z,3.10
2022-10-24T08:13:37.295Z,2.73
2022-10-24T08:16:07.427Z,3.00
2022-10-24T08:18:38.627Z,3.07
2022-10-24T08:21:07.647Z,3.17
2022-10-24T08:23:35.088Z,2.67
2022-10-24T08:26:04.510Z,3.07
2022-10-24T08:28:30.969Z,3.13
2022-10-24T08:30:57.327Z,2.97
2022-10-24T08:33:23.684Z,2.50
2022-10-24T08:35:50.106Z,2.50
2022-10-24T08:38:16.742Z,2.77
2022-10-24T08:40:43.090Z,3.00
2022-10-24T08:43:10.500Z,2.70
2022-10-24T08:45:47.615Z,2.60
2022-10-24T08:48:14.628Z,3.50
2022-10-24T08:50:43.971Z,3.90
2022-10-24T08:53:13.485Z,2.77
2022-10-24T08:55:50.656Z,2.70
2022-10-24T08:58:32.002Z,2.60
2022-10-24T09:01:00.675Z,2.23
2022-10-24T09:03:51.273Z,2.90
2022-10-24T09:06:22.996Z,2.53
2022-10-24T09:08:58.201Z,2.43
2022-10-24T09:11:43.245Z,2.13
2022-10-24T09:14:13.743Z,2.73
2022-10-24T09:16:41.425Z,2.70
2022-10-24T09:19:12.152Z,2.43
2022-10-24T09:21:40.575Z,2.13
2022-10-24T09:24:07.254Z,2.63
2022-10-24T09:26:35.621Z,2.30
2022-10-24T09:29:02.002Z,2.20
2022-10-24T09:31:28.386Z,2.40
2022-10-24T09:33:56.600Z,2.90
2022-10-24T09:36:25.074Z,2.03
2022-10-24T09:38:51.547Z,1.70
2022-10-24T09:41:25.362Z,2.37
2022-10-24T09:43:56.236Z,1.73
2022-10-24T09:46:24.458Z,2.40
2022-10-24T09:48:55.491Z,2.23
2022-10-24T09:51:33.658Z,2.40
2022-10-24T09:54:03.049Z,1.80
2022-10-24T09:56:37.718Z,2.07
2022-10-24T09:59:33.795Z,2.60
2022-10-24T10:02:19.653Z,2.50
2022-10-24T10:04:52.450Z,1.87
2022-10-24T10:07:20.188Z,1.60
2022-10-24T10:09:50.583Z,1.80
2022-10-24T10:12:39.806Z,2.13
2022-10-24T10:15:23.433Z,2.22
2022-10-24T10:17:50.663Z,1.70
2022-10-24T10:20:35.438Z,1.65
2022-10-24T10:23:23.746Z,2.00
2022-10-24T10:25:50.332Z,2.40
2022-10-24T10:28:23.482Z,2.20
2022-10-24T10:30:53.809Z,1.58
2022-10-24T10:33:23.894Z,2.00
2022-10-24T10:35:53.064Z,1.55
2022-10-24T10:38:25.318Z,2.17
2022-10-24T10:41:10.495Z,2.20
2022-10-24T10:43:46.063Z,2.33
2022-10-24T10:46:16.587Z,1.60
2022-10-24T10:49:03.194Z,2.20
2022-10-24T10:51:40.178Z,2.03
2022-10-24T10:54:12.404Z,1.70
2022-10-24T10:56:38.711Z,1.70
2022-10-24T10:59:05.031Z,1.87
2022-10-24T11:01:42.815Z,1.50
2022-10-24T11:04:23.028Z,2.27
2022-10-24T11:06:49.374Z,1.70
2022-10-24T11:09:18.591Z,1.40
2022-10-24T11:11:48.735Z,1.37
2022-10-24T11:14:21.894Z,1.37
2022-10-24T11:16:49.232Z,1.40
2022-10-24T11:19:28.349Z,1.37
2022-10-24T11:21:57.111Z,1.70
2022-10-24T11:24:24.128Z,1.50
2022-10-24T11:26:58.158Z,1.50
2022-10-24T11:29:36.577Z,1.53
2022-10-24T11:32:07.430Z,1.40
2022-10-24T11:34:33.781Z,1.53
2022-10-24T11:37:02.993Z,1.20
2022-10-24T11:39:30.514Z,1.30
2022-10-24T11:42:08.145Z,1.30
2022-10-24T11:44:44.527Z,1.43
2022-10-24T11:47:20.794Z,1.50
2022-10-24T11:49:49.169Z,1.30
2022-10-24T11:52:22.005Z,0.93
2022-10-24T11:54:51.628Z,1.60
2022-10-24T11:57:20.455Z,1.70
2022-10-24T11:59:46.890Z,1.30
2022-10-24T12:02:32.367Z,1.40
2022-10-24T12:04:58.831Z,1.17
2022-10-24T12:07:25.246Z,1.40
2022-10-24T12:10:17.943Z,1.43
2022-10-24T12:13:06.490Z,1.03
2022-10-24T12:15:39.055Z,1.40
2022-10-24T12:18:26.653Z,1.40
2022-10-24T12:20:53.977Z,1.10
2022-10-24T12:23:21.867Z,0.93
2022-10-24T12:25:48.875Z,1.00
2022-10-24T12:28:20.696Z,1.10
2022-10-24T12:31:05.632Z,1.00
2022-10-24T12:33:32.138Z,1.13
2022-10-24T12:35:58.793Z,1.40
2022-10-24T12:38:28.268Z,1.20
2022-10-24T12:40:58.869Z,1.07
2022-10-24T12:43:43.289Z,1.30
2022-10-24T12:46:21.807Z,1.20
2022-10-24T12:48:58.224Z,1.40
2022-10-24T12:51:29.307Z,0.70
2022-10-24T12:54:11.966Z,1.07
2022-10-24T12:56:50.562Z,1.50
2022-10-24T12:59:28.146Z,1.20
2022-10-24T13:02:13.082Z,1.17
2022-10-24T13:04:45.524Z,1.23
2022-10-24T13:07:14.688Z,1.17
2022-10-24T13:09:57.819Z,1.60
2022-10-24T13:12:43.195Z,1.90
2022-10-24T13:15:09.670Z,1.30
2022-10-24T13:17:45.336Z,1.23
2022-10-24T13:20:49.677Z,1.30
2022-10-24T13:23:27.300Z,1.30
2022-10-24T13:25:57.387Z,1.00
2022-10-24T13:28:23.703Z,1.20
2022-10-24T13:30:50.328Z,1.30
2022-10-24T13:33:36.562Z,1.50
2022-10-24T13:36:17.711Z,0.90
2022-10-24T13:38:55.071Z,1.03
2022-10-24T13:41:41.792Z,1.53
2022-10-24T13:44:15.191Z,1.67
2022-10-24T13:46:47.998Z,1.50
2022-10-24T13:49:28.583Z,1.20
2022-10-24T13:51:56.932Z,2.03
2022-10-24T13:54:32.113Z,1.03
2022-10-24T13:57:01.315Z,1.20
2022-10-24T13:59:33.428Z,1.30
2022-10-24T14:02:02.888Z,1.40
2022-10-24T14:04:29.807Z,1.40
2022-10-24T14:07:06.780Z,1.63
2022-10-24T14:09:43.251Z,1.10
2022-10-24T14:12:23.832Z,1.20
2022-10-24T14:14:50.972Z,1.17
2022-10-24T14:17:43.458Z,1.00
2022-10-24T14:20:09.816Z,1.40
2022-10-24T14:22:39.802Z,1.23
2022-10-24T14:25:26.954Z,1.40
2022-10-24T14:27:54.039Z,1.47
2022-10-24T14:30:22.170Z,1.13
2022-10-24T14:32:48.606Z,1.33
2022-10-24T14:35:15.862Z,1.30
2022-10-24T14:37:43.044Z,1.83
2022-10-24T14:40:18.855Z,1.10
2022-10-24T14:42:45.935Z,1.63
2022-10-24T14:45:30.796Z,1.90
2022-10-24T14:47:59.106Z,3.73
2022-10-24T14:50:40.123Z,1.40
2022-10-24T14:53:06.859Z,1.20
2022-10-24T14:55:33.474Z,1.10
2022-10-24T14:57:59.895Z,1.30
2022-10-24T15:00:27.486Z,1.37
2022-10-24T15:02:56.371Z,1.20
2022-10-24T15:05:23.519Z,1.40
2022-10-24T15:08:16.560Z,1.30
2022-10-24T15:10:42.245Z,1.70
2022-10-24T15:13:13.649Z,1.37
2022-10-24T15:15:48.703Z,1.23
2022-10-24T15:18:32.056Z,1.33
2022-10-24T15:21:04.193Z,1.80
2022-10-24T15:23:44.515Z,1.83
2022-10-24T15:26:12.586Z,1.47
2022-10-24T15:28:46.854Z,1.70
2022-10-24T15:31:14.358Z,1.80
2022-10-24T15:33:41.020Z,1.50
2022-10-24T15:36:09.617Z,1.60
2022-10-24T15:38:40.428Z,1.40
2022-10-24T15:41:09.198Z,1.20
2022-10-24T15:43:35.636Z,1.13
2022-10-24T15:46:02.047Z,1.13
2022-10-24T15:48:28.406Z,1.20
2022-10-24T15:50:54.746Z,1.40
2022-10-24T15:53:21.879Z,1.20
2022-10-24T15:55:48.382Z,1.53
2022-10-24T15:58:15.653Z,1.47
2022-10-24T16:00:42.459Z,2.07
2022-10-24T16:03:12.355Z,1.63
2022-10-24T16:05:40.498Z,1.40
2022-10-24T16:08:11.183Z,1.70
2022-10-24T16:10:37.537Z,1.67
2022-10-24T16:13:04.181Z,1.27
2022-10-24T16:18:19.314Z,1.77
2022-10-24T16:20:45.802Z,1.33
2022-10-24T16:23:14.984Z,1.40
2022-10-24T16:25:41.441Z,2.00
2022-10-24T16:28:08.250Z,1.67
2022-10-24T16:30:35.687Z,1.77
2022-10-24T16:33:02.055Z,1.47
2022-10-24T16:35:29.882Z,1.50
2022-10-24T16:37:57.426Z,2.67
2022-10-24T16:40:24.834Z,1.67
2022-10-24T16:42:51.531Z,1.53
2022-10-24T16:45:18.478Z,1.60
2022-10-24T16:47:45.087Z,2.07
2022-10-24T16:50:15.718Z,1.10
2022-10-24T16:52:42.145Z,1.63
2022-10-24T16:55:08.905Z,1.80
2022-10-24T16:57:35.242Z,1.70
2022-10-24T17:00:01.655Z,1.70
2022-10-24T17:02:27.984Z,1.47
2022-10-24T17:04:54.481Z,1.97
2022-10-24T17:07:20.829Z,1.77
2022-10-24T17:09:47.318Z,1.80
2022-10-24T17:12:13.670Z,1.80
2022-10-24T17:14:40.058Z,1.87
2022-10-24T17:17:06.724Z,1.80
2022-10-24T17:19:35.695Z,2.00
2022-10-24T17:22:02.382Z,1.80
2022-10-24T17:24:28.764Z,1.50
2022-10-24T17:26:55.183Z,1.60
2022-10-24T17:29:29.691Z,1.80
2022-10-24T17:31:56.461Z,2.00
2022-10-24T17:34:23.474Z,2.23
2022-10-24T17:36:52.358Z,1.60
2022-10-24T17:42:10.130Z,1.60
2022-10-24T17:44:37.883Z,1.40
2022-10-24T17:47:05.154Z,2.03
2022-10-24T17:49:31.583Z,1.93
2022-10-24T17:51:57.920Z,1.47
2022-10-24T17:54:24.267Z,1.70
2022-10-24T17:56:50.675Z,1.63
2022-10-24T17:59:17.111Z,1.63
2022-10-24T18:01:43.631Z,2.03
2022-10-24T18:04:10.119Z,2.30
2022-10-24T18:06:40.638Z,1.40
2022-10-24T18:09:09.371Z,1.70
2022-10-24T18:11:35.782Z,2.07
2022-10-24T18:14:02.265Z,1.83
2022-10-24T18:16:30.625Z,2.10
2022-10-24T18:18:57.402Z,1.87
2022-10-24T18:21:24.821Z,1.70
2022-10-24T18:23:52.046Z,1.60
2022-10-24T18:26:19.824Z,1.70
2022-10-24T18:28:47.249Z,1.30
2022-10-24T18:31:14.983Z,1.80
2022-10-24T18:33:41.632Z,2.20
2022-10-24T18:36:08.046Z,1.33
2022-10-24T18:38:35.239Z,1.67
2022-10-24T18:41:02.159Z,1.80
2022-10-24T18:43:28.723Z,1.63
2022-10-24T18:45:55.422Z,2.00
2022-10-24T18:48:21.962Z,1.40
2022-10-24T18:50:49.833Z,1.70
2022-10-24T18:53:23.785Z,1.73
2022-10-24T18:55:50.503Z,2.03
2022-10-24T18:58:19.057Z,1.50
2022-10-24T19:00:46.106Z,1.63
2022-10-24T19:03:18.710Z,1.70
2022-10-24T19:05:53.826Z,2.40
2022-10-24T19:08:22.638Z,1.73
2022-10-24T19:10:51.771Z,1.50
2022-10-24T19:13:18.392Z,1.83
2022-10-24T19:15:47.025Z,2.33
2022-10-24T19:18:15.445Z,2.30
2022-10-24T19:20:42.418Z,1.80
2022-10-24T19:23:13.599Z,1.20
2022-10-24T19:25:40.134Z,1.57
2022-10-24T19:28:06.837Z,1.60
2022-10-24T19:30:33.182Z,2.17
2022-10-24T19:32:59.544Z,1.83
2022-10-24T19:35:25.929Z,2.23
2022-10-24T19:37:52.271Z,2.20
2022-10-24T19:40:18.633Z,2.20
2022-10-24T19:42:44.966Z,2.00
2022-10-24T19:45:11.382Z,2.33
2022-10-24T19:47:37.719Z,2.00
2022-10-24T19:50:04.648Z,2.17
2022-10-24T19:52:31.000Z,1.87
2022-10-24T19:54:57.358Z,2.20
2022-10-24T19:57:23.760Z,15.30
2022-10-24T19:59:50.093Z,3.70
2022-10-24T20:02:16.468Z,4.83
2022-10-24T20:04:46.762Z,1.50
2022-10-24T20:07:17.489Z,2.07
2022-10-24T20:09:44.437Z,2.20
2022-10-24T20:12:10.753Z,2.33
2022-10-24T20:14:37.125Z,2.17
2022-10-24T20:17:03.474Z,1.90
2022-10-24T20:19:29.877Z,2.20
2022-10-24T20:21:57.888Z,1.87
2022-10-24T20:24:27.469Z,2.17
2022-10-24T20:26:53.884Z,2.13
2022-10-24T20:29:20.226Z,2.40
2022-10-24T20:31:46.793Z,2.20
2022-10-24T20:34:14.007Z,2.17
2022-10-24T20:36:42.186Z,2.27
2022-10-24T20:39:08.948Z,2.10
2022-10-24T20:41:35.843Z,2.70
2022-10-24T20:44:02.392Z,2.60
2022-10-24T20:46:28.840Z,2.37
2022-10-24T20:48:55.191Z,2.00
2022-10-24T20:51:21.930Z,2.30
2022-10-24T20:53:48.325Z,2.90
2022-10-24T20:56:16.488Z,2.70
2022-10-24T20:58:43.639Z,2.37
2022-10-24T21:01:14.366Z,2.40
2022-10-24T21:03:41.210Z,2.60
2022-10-24T21:06:14.540Z,2.60
2022-10-24T21:08:40.925Z,2.40
2022-10-24T21:11:07.514Z,2.60
2022-10-24T21:13:33.962Z,2.53
2022-10-24T21:16:02.156Z,2.77
2022-10-24T21:18:28.502Z,2.73
2022-10-24T21:20:54.858Z,2.80
2022-10-24T21:23:21.235Z,2.73
2022-10-24T21:25:47.544Z,3.07
2022-10-24T21:28:13.902Z,3.13
2022-10-24T21:30:40.226Z,3.10
2022-10-24T21:33:10.593Z,2.73
2022-10-24T21:35:38.043Z,3.20
2022-10-24T21:38:04.408Z,3.20
2022-10-24T21:40:30.742Z,3.67
2022-10-24T21:42:59.709Z,2.63
2022-10-24T21:45:26.047Z,2.83
2022-10-24T21:47:52.375Z,2.80
2022-10-24T21:50:18.705Z,3.40
2022-10-24T21:52:45.369Z,3.33
2022-10-24T21:55:11.914Z,2.50
2022-10-24T21:57:38.251Z,3.03
2022-10-24T22:00:05.203Z,2.23
2022-10-24T22:02:31.664Z,3.27
2022-10-24T22:04:58.065Z,2.70
2022-10-24T22:07:24.533Z,3.10
2022-10-24T22:09:50.912Z,2.60
2022-10-24T22:12:17.279Z,2.87
2022-10-24T22:14:43.612Z,3.10
2022-10-24T22:17:10.014Z,3.00
2022-10-24T22:19:36.344Z,2.70
2022-10-24T22:22:02.706Z,3.20
2022-10-24T22:24:29.050Z,2.60
2022-10-24T22:26:55.422Z,2.70
2022-10-24T22:29:23.651Z,2.10
2022-10-24T22:31:50.551Z,2.53
2022-10-24T22:34:18.316Z,2.73
2022-10-24T22:36:50.780Z,2.80
2022-10-24T22:39:21.959Z,2.30
2022-10-24T22:41:48.748Z,2.50
2022-10-24T22:44:16.155Z,2.50
2022-10-24T22:46:54.594Z,2.53
2022-10-24T22:49:27.150Z,3.00
2022-10-24T22:51:53.717Z,2.50
2022-10-24T22:54:22.478Z,2.00
2022-10-24T22:56:49.056Z,3.07
2022-10-24T22:59:15.660Z,2.83
2022-10-24T23:01:42.056Z,2.80
2022-10-24T23:04:11.291Z,2.33
2022-10-24T23:06:41.303Z,2.87
2022-10-24T23:09:09.403Z,2.70
2022-10-24T23:11:35.859Z,2.67
2022-10-24T23:14:02.410Z,2.73
2022-10-24T23:16:34.912Z,2.57
2022-10-24T23:19:01.437Z,2.63
2022-10-24T23:21:33.588Z,2.80
2022-10-24T23:24:00.050Z,3.03
2022-10-24T23:26:36.321Z,2.97
2022-10-24T23:29:28.286Z,3.13
2022-10-24T23:31:54.825Z,2.70
2022-10-24T23:34:21.511Z,3.27
2022-10-24T23:36:48.528Z,2.20
2022-10-24T23:39:15.180Z,3.00
2022-10-24T23:41:41.830Z,2.80
2022-10-24T23:44:11.358Z,2.67
2022-10-24T23:46:38.884Z,2.50
2022-10-24T23:49:08.018Z,2.93
2022-10-24T23:51:53.304Z,2.40
2022-10-24T23:54:22.864Z,2.50
2022-10-24T23:56:49.368Z,2.50
2022-10-24T23:59:15.699Z,2.63
